LKPR/PRG METAR and TAF weather

Enter ICAO airport designator
Station Type Date Time Source
LKPR METAR 2020/06/01 16:30 UTC NOAA

LKPR 011630Z 01011KT CAVOK 21/06 Q1020 NOSIG


Station Type Date Time Source
LKPR Decoded METAR 2020/06/01 16:30 UTC NOAA

Praha / Ruzyne, Czech Republic (LKPR) 50-06N 014-15E 365M
Jun 01, 2020 - 12:30 PM EDT / 2020.06.01 1630 UTC
Wind: from the N (010 degrees) at 13 MPH (11 KT):0
Visibility: greater than 7 mile(s):0
Temperature: 69 F (21 C)
Dew Point: 42 F (6 C)
Relative Humidity: 37%
Pressure (altimeter): 30.12 in. Hg (1020 hPa)
ob: LKPR 011630Z 01011KT CAVOK 21/06 Q1020 NOSIG
cycle: 16

Station Type Date Time Source
LKPR TAF 2020/06/01 12:03 UTC NOAA

TAF LKPR 011100Z 0112/0218 02012KT CAVOK
TEMPO 0112/0117 9999 SCT040
BECMG 0122/0200 30005KT
BECMG 0206/0208 35012KT
TEMPO 0210/0216 36012G22KT -SHRA BKN045

Example: see airport list